Terminal Aerodrome Forecast
Issued by NWS

Home | Current Version | Previous Version | Text Only | Print | Product List | Glossary On
Versions: 1 2 3 4 5 6 7 8 9 10 11 12 13 14 15 16 17 18
984
FTUS41 KBTV 282321
TAFMPV
TAF
KMPV 282321Z 2900/2924 24007KT P6SM FEW200
     FM290900 17004KT P6SM BKN100
     FM291100 13004KT P6SM VCSH BKN090
     FM291600 29005KT P6SM BKN070
     FM292000 30013G21KT P6SM SCT080=

USA.gov is the U.S. government's official web portal to all federal, state and local government web resources and services.